Time;durP1;ratioP1;P1;durP2;ratioP2;P2;SDS_P1;SDS_P2;PMS_P1;PMS_P2;Temp;Humidity;BMP_temperature;BMP_pressure;BME280_temperature;BME280_humidity;BME280_pressure;Samples;Min_cycle;Max_cycle;Signal;HPM_P1;HPM_P2
2023/10/26 00:00:29;;;;;;;2.43;1.10;;;11.60;3.90;;;;;;5027945;28;20423;-70
2023/10/26 00:02:55;;;;;;;1.97;0.73;;;11.60;4.10;;;;;;5012764;28;20191;-70
2023/10/26 00:05:20;;;;;;;1.80;0.67;;;11.50;5.00;;;;;;5012639;28;20220;-70
2023/10/26 00:07:46;;;;;;;2.57;0.97;;;11.50;4.70;;;;;;5011653;28;20426;-70
2023/10/26 00:10:12;;;;;;;3.97;0.80;;;11.40;6.00;;;;;;5027756;28;20296;-69
2023/10/26 00:12:37;;;;;;;1.80;0.70;;;11.50;5.40;;;;;;5028051;28;20628;-70
2023/10/26 00:15:03;;;;;;;2.00;0.60;;;11.60;4.20;;;;;;5012428;28;20210;-70
2023/10/26 00:17:29;;;;;;;1.90;0.70;;;11.60;4.50;;;;;;5012386;28;20549;-70
2023/10/26 00:19:55;;;;;;;1.80;0.70;;;11.50;5.20;;;;;;5027589;28;20426;-70
2023/10/26 00:22:21;;;;;;;1.87;0.80;;;11.30;6.10;;;;;;5027505;28;20192;-70
2023/10/26 00:24:47;;;;;;;2.03;0.67;;;11.30;6.10;;;;;;5027034;28;20250;-70
2023/10/26 00:27:14;;;;;;;4.77;1.33;;;11.30;6.40;;;;;;5010694;28;20423;-71
2023/10/26 00:29:40;;;;;;;2.33;0.97;;;11.30;7.40;;;;;;5026987;28;20219;-70
2023/10/26 00:32:06;;;;;;;1.73;0.73;;;11.30;7.00;;;;;;5012041;28;20419;-70
2023/10/26 00:34:33;;;;;;;2.80;1.00;;;11.30;6.90;;;;;;5027112;28;20446;-69
2023/10/26 00:36:58;;;;;;;1.90;0.83;;;11.30;7.20;;;;;;5012417;28;20465;-69
2023/10/26 00:39:24;;;;;;;2.20;1.00;;;11.30;6.10;;;;;;5011875;28;20423;-69
2023/10/26 00:41:51;;;;;;;2.73;0.97;;;11.40;6.30;;;;;;5012069;28;20179;-70
2023/10/26 00:44:16;;;;;;;1.97;0.80;;;11.30;6.00;;;;;;5026836;28;20384;-70
2023/10/26 00:46:43;;;;;;;1.83;0.70;;;11.40;6.20;;;;;;5010595;28;20423;-69
2023/10/26 00:49:11;;;;;;;3.90;0.83;;;11.30;5.60;;;;;;5026709;28;20206;-70
2023/10/26 00:51:38;;;;;;;2.00;0.70;;;11.30;5.60;;;;;;5026878;28;20466;-70
2023/10/26 00:54:04;;;;;;;2.50;0.60;;;11.20;6.00;;;;;;5011997;28;20542;-70
2023/10/26 00:56:31;;;;;;;2.00;0.63;;;11.10;6.00;;;;;;5010687;28;20441;-70
2023/10/26 00:59:00;;;;;;;1.63;0.70;;;11.10;6.00;;;;;;5010436;28;20433;-69
2023/10/26 01:01:26;;;;;;;3.83;0.80;;;11.00;6.10;;;;;;5011683;28;20745;-69
2023/10/26 01:03:53;;;;;;;2.63;0.87;;;11.00;7.20;;;;;;5044324;23;20459;-68
2023/10/26 01:06:18;;;;;;;5.10;0.87;;;10.90;6.60;;;;;;5032480;28;20445;-69
2023/10/26 01:08:44;;;;;;;4.10;0.60;;;10.90;6.90;;;;;;5032239;28;20421;-69
2023/10/26 01:11:10;;;;;;;1.93;0.80;;;10.80;7.00;;;;;;5032852;28;20265;-69
2023/10/26 01:13:35;;;;;;;1.90;0.90;;;10.70;7.80;;;;;;5032698;28;20665;-69
2023/10/26 01:16:04;;;;;;;3.07;1.57;;;10.70;7.90;;;;;;5028651;28;20180;-69
2023/10/26 01:18:31;;;;;;;2.37;1.07;;;10.60;7.80;;;;;;5012702;28;20411;-69
2023/10/26 01:20:56;;;;;;;1.80;0.83;;;10.60;7.30;;;;;;5013023;28;20992;-69
2023/10/26 01:23:22;;;;;;;1.80;0.80;;;10.70;7.20;;;;;;5012749;28;20415;-69
2023/10/26 01:25:52;;;;;;;3.47;1.00;;;10.60;7.20;;;;;;5012872;28;20192;-69
2023/10/26 01:28:17;;;;;;;1.70;0.60;;;10.60;7.40;;;;;;5012625;28;20176;-68
2023/10/26 01:30:43;;;;;;;2.10;0.67;;;10.60;7.40;;;;;;5012512;28;21002;-67
2023/10/26 01:33:09;;;;;;;2.77;1.00;;;10.50;7.60;;;;;;5027400;28;20645;-67
2023/10/26 01:35:38;;;;;;;2.03;0.70;;;10.50;7.40;;;;;;5027681;28;20246;-68
2023/10/26 01:38:04;;;;;;;3.30;0.73;;;10.50;6.80;;;;;;5029274;28;20188;-68
2023/10/26 01:40:30;;;;;;;1.70;0.70;;;10.40;7.10;;;;;;5016170;28;20419;-68
2023/10/26 01:42:55;;;;;;;2.67;0.80;;;10.50;6.80;;;;;;5016383;28;20414;-68
2023/10/26 01:45:21;;;;;;;2.47;0.60;;;10.40;6.60;;;;;;5016305;28;20203;-68
2023/10/26 01:47:46;;;;;;;1.70;0.57;;;10.40;6.60;;;;;;5031231;28;20309;-68
2023/10/26 01:50:12;;;;;;;1.83;0.70;;;10.40;6.60;;;;;;5030797;28;20208;-68
2023/10/26 01:52:37;;;;;;;1.90;0.60;;;10.30;6.90;;;;;;5014713;28;20180;-68
2023/10/26 01:55:03;;;;;;;2.27;0.70;;;10.20;7.60;;;;;;5015592;28;20199;-69
2023/10/26 01:57:29;;;;;;;2.27;0.70;;;10.10;7.90;;;;;;5015838;28;20660;-68
2023/10/26 01:59:55;;;;;;;4.10;0.97;;;10.20;8.30;;;;;;5016078;28;20184;-68
2023/10/26 02:02:21;;;;;;;1.93;0.70;;;10.00;8.80;;;;;;5015815;28;20184;-68
2023/10/26 02:04:47;;;;;;;4.17;1.03;;;10.00;9.70;;;;;;5015447;28;20793;-68
2023/10/26 02:07:12;;;;;;;1.70;0.60;;;10.00;10.30;;;;;;5015869;28;20207;-68
2023/10/26 02:09:38;;;;;;;3.90;1.03;;;10.00;9.70;;;;;;5017615;28;20214;-69
2023/10/26 02:12:04;;;;;;;1.50;0.50;;;9.90;10.60;;;;;;5017727;28;20176;-68
2023/10/26 02:14:29;;;;;;;2.60;0.73;;;9.90;10.30;;;;;;5018100;28;20196;-69
2023/10/26 02:16:55;;;;;;;2.57;0.90;;;9.90;10.90;;;;;;5017597;28;20180;-69
2023/10/26 02:19:21;;;;;;;2.50;0.90;;;9.90;10.40;;;;;;5016235;28;20176;-70
2023/10/26 02:21:46;;;;;;;1.90;0.70;;;9.80;11.00;;;;;;5017708;28;20262;-69
2023/10/26 02:24:12;;;;;;;1.80;1.03;;;9.80;10.80;;;;;;5017724;28;20454;-68
2023/10/26 02:26:37;;;;;;;1.70;0.70;;;9.70;11.80;;;;;;5017737;28;20200;-68
2023/10/26 02:29:03;;;;;;;2.03;0.90;;;9.70;11.50;;;;;;5017126;28;20242;-68
2023/10/26 02:31:28;;;;;;;1.83;0.83;;;9.70;11.90;;;;;;5017406;28;20176;-68
2023/10/26 02:33:54;;;;;;;2.47;0.60;;;9.70;11.60;;;;;;5017174;28;20196;-68
2023/10/26 02:36:19;;;;;;;3.60;0.80;;;9.70;11.50;;;;;;5017173;28;20255;-68
2023/10/26 02:38:45;;;;;;;2.30;0.80;;;9.70;11.90;;;;;;5017490;28;20183;-69
2023/10/26 02:41:10;;;;;;;2.13;0.70;;;9.60;12.80;;;;;;5017145;28;20649;-68
2023/10/26 02:43:36;;;;;;;1.70;0.70;;;9.60;12.60;;;;;;5017528;28;20285;-67
2023/10/26 02:46:04;;;;;;;1.60;0.70;;;9.60;12.80;;;;;;5016858;28;20176;-67
2023/10/26 02:48:30;;;;;;;2.20;1.03;;;9.60;13.40;;;;;;5016388;28;20254;-68
2023/10/26 02:50:56;;;;;;;1.90;0.80;;;9.60;14.00;;;;;;5016362;28;20493;-67
2023/10/26 02:53:22;;;;;;;1.83;0.60;;;9.60;14.50;;;;;;5016839;28;20180;-68
2023/10/26 02:55:47;;;;;;;3.50;0.80;;;9.60;14.50;;;;;;5017460;28;20192;-70
2023/10/26 02:58:13;;;;;;;2.13;0.97;;;9.60;14.30;;;;;;5017122;28;20426;-70
2023/10/26 03:00:38;;;;;;;1.60;0.60;;;9.60;14.30;;;;;;5014941;28;20257;-69
2023/10/26 03:03:04;;;;;;;2.17;0.97;;;9.60;14.50;;;;;;5016810;28;20195;-68
2023/10/26 03:05:30;;;;;;;6.57;0.93;;;9.60;14.50;;;;;;5016781;28;20212;-68
2023/10/26 03:07:55;;;;;;;1.70;0.80;;;9.50;14.50;;;;;;5016686;28;20176;-68
2023/10/26 03:10:22;;;;;;;2.60;0.87;;;9.50;15.50;;;;;;5016575;28;20234;-69
2023/10/26 03:12:49;;;;;;;1.90;0.70;;;9.50;16.00;;;;;;5016878;28;20379;-68
2023/10/26 03:15:14;;;;;;;2.13;0.83;;;9.50;16.70;;;;;;5017352;28;20443;-69
2023/10/26 03:17:40;;;;;;;2.23;0.73;;;9.50;16.20;;;;;;5017416;28;20793;-69
2023/10/26 03:20:06;;;;;;;1.80;0.90;;;9.50;16.80;;;;;;5017164;28;20187;-69
2023/10/26 03:22:34;;;;;;;2.10;0.97;;;9.50;17.00;;;;;;5017453;28;20179;-70
2023/10/26 03:25:00;;;;;;;1.77;0.70;;;9.40;17.80;;;;;;5031877;28;20450;-70
2023/10/26 03:27:26;;;;;;;2.37;1.20;;;9.50;17.50;;;;;;5016930;28;20415;-70
2023/10/26 03:29:52;;;;;;;2.30;0.97;;;9.50;17.70;;;;;;5031904;28;20462;-70
2023/10/26 03:32:18;;;;;;;1.70;0.70;;;9.40;17.80;;;;;;5016687;28;20550;-70
2023/10/26 03:34:44;;;;;;;2.63;1.20;;;9.40;18.40;;;;;;5031973;28;20560;-70
2023/10/26 03:37:09;;;;;;;1.90;0.90;;;9.30;18.60;;;;;;5017476;28;20202;-70
2023/10/26 03:39:35;;;;;;;2.60;1.10;;;9.20;18.60;;;;;;5016720;28;20611;-69
2023/10/26 03:42:01;;;;;;;1.90;0.80;;;9.10;20.70;;;;;;5016520;28;20526;-69
2023/10/26 03:44:28;;;;;;;3.50;1.23;;;9.10;22.30;;;;;;5016392;28;20446;-69
2023/10/26 03:46:53;;;;;;;1.90;0.87;;;9.00;22.70;;;;;;5016100;28;20180;-70
2023/10/26 03:49:20;;;;;;;1.80;0.80;;;9.00;23.80;;;;;;5030792;28;20536;-68
2023/10/26 03:51:46;;;;;;;2.00;1.00;;;8.90;24.10;;;;;;5016396;28;20176;-68
2023/10/26 03:54:12;;;;;;;2.33;0.80;;;8.90;24.40;;;;;;5016459;28;21005;-68
2023/10/26 03:56:38;;;;;;;2.83;1.10;;;8.90;24.30;;;;;;5016042;28;20407;-68
2023/10/26 03:59:03;;;;;;;2.63;1.10;;;8.90;24.80;;;;;;5016097;28;20527;-70
2023/10/26 04:01:29;;;;;;;3.07;1.20;;;8.90;24.80;;;;;;5015652;28;20230;-68
2023/10/26 04:03:54;;;;;;;2.77;1.00;;;8.90;24.60;;;;;;5015855;28;20203;-68
2023/10/26 04:06:20;;;;;;;3.67;1.47;;;8.90;25.10;;;;;;5031422;28;20187;-68
2023/10/26 04:08:45;;;;;;;5.37;1.20;;;8.90;24.80;;;;;;5014419;28;20231;-68
2023/10/26 04:11:17;;;;;;;3.70;1.10;;;8.90;25.20;;;;;;5028233;28;20175;-67
2023/10/26 04:13:43;;;;;;;3.60;1.00;;;8.80;25.50;;;;;;5027624;28;20323;-68
2023/10/26 04:16:09;;;;;;;2.00;1.20;;;8.80;26.70;;;;;;5012686;28;20414;-68
2023/10/26 04:18:35;;;;;;;2.27;0.93;;;8.80;26.30;;;;;;5012587;28;20426;-68
2023/10/26 04:21:01;;;;;;;3.33;1.10;;;8.80;26.30;;;;;;5012519;28;20811;-68
2023/10/26 04:23:27;;;;;;;1.97;1.10;;;8.80;26.40;;;;;;5027853;28;20187;-67
2023/10/26 04:25:53;;;;;;;2.17;0.90;;;8.80;26.70;;;;;;5012648;28;20211;-68
2023/10/26 04:28:18;;;;;;;5.63;1.67;;;8.80;25.80;;;;;;5012544;28;20430;-67
2023/10/26 04:30:48;;;;;;;3.20;1.03;;;8.90;25.70;;;;;;5011904;28;20533;-68
2023/10/26 04:33:14;;;;;;;2.43;1.07;;;8.90;26.10;;;;;;5012381;28;20202;-68
2023/10/26 04:35:41;;;;;;;2.80;1.43;;;8.90;26.80;;;;;;5027444;28;20438;-68
2023/10/26 04:38:08;;;;;;;3.57;0.97;;;8.90;26.80;;;;;;5012485;28;20415;-68
2023/10/26 04:40:34;;;;;;;2.30;1.30;;;8.90;26.40;;;;;;5012035;28;20426;-68
2023/10/26 04:42:59;;;;;;;2.80;1.07;;;8.90;26.80;;;;;;5012521;28;20419;-68
2023/10/26 04:45:25;;;;;;;4.10;1.33;;;8.90;26.20;;;;;;5010747;28;20484;-68
2023/10/26 04:47:51;;;;;;;3.40;1.20;;;9.00;26.30;;;;;;5012473;28;20214;-67
2023/10/26 04:50:16;;;;;;;2.63;1.27;;;9.00;25.90;;;;;;5012183;28;20211;-68
2023/10/26 04:52:42;;;;;;;2.60;1.70;;;9.10;25.60;;;;;;5012201;28;20187;-67
2023/10/26 04:55:08;;;;;;;3.00;1.10;;;9.10;25.60;;;;;;5012245;28;20196;-68
2023/10/26 04:57:34;;;;;;;4.17;1.60;;;9.10;25.60;;;;;;5011028;28;20187;-69
2023/10/26 05:00:00;;;;;;;3.40;1.80;;;9.10;25.80;;;;;;5027052;28;20238;-68
2023/10/26 05:02:25;;;;;;;2.77;1.40;;;9.00;26.80;;;;;;5012422;28;20427;-69
2023/10/26 05:04:51;;;;;;;3.70;1.53;;;9.00;26.90;;;;;;5012002;28;20574;-69
2023/10/26 05:07:17;;;;;;;2.83;1.60;;;9.00;26.80;;;;;;5012229;28;20199;-69
2023/10/26 05:09:42;;;;;;;6.87;2.27;;;9.10;26.90;;;;;;5026827;28;20552;-68
2023/10/26 05:12:08;;;;;;;9.97;2.07;;;9.10;27.40;;;;;;5013917;28;20541;-70
2023/10/26 05:14:33;;;;;;;2.73;1.23;;;9.20;26.90;;;;;;5016447;28;20192;-68
2023/10/26 05:16:59;;;;;;;2.40;1.47;;;9.30;27.50;;;;;;5015981;28;20180;-69
2023/10/26 05:19:24;;;;;;;4.73;2.00;;;9.30;28.40;;;;;;5015960;28;20656;-68
2023/10/26 05:21:50;;;;;;;2.83;1.90;;;9.30;28.80;;;;;;5030937;28;20230;-68
2023/10/26 05:24:15;;;;;;;3.30;2.00;;;9.40;30.10;;;;;;5015802;28;20258;-68
2023/10/26 05:26:41;;;;;;;2.30;1.57;;;9.40;30.40;;;;;;5016150;28;20230;-67
2023/10/26 05:29:06;;;;;;;4.23;1.90;;;9.40;31.40;;;;;;5015912;28;20204;-70
2023/10/26 05:31:32;;;;;;;2.03;1.23;;;9.40;31.40;;;;;;5015793;28;20177;-69
2023/10/26 05:33:57;;;;;;;2.00;0.83;;;9.40;32.10;;;;;;5015621;28;20195;-68
2023/10/26 05:36:23;;;;;;;4.17;1.47;;;9.50;32.90;;;;;;5015595;28;20222;-69
2023/10/26 05:38:50;;;;;;;3.10;1.20;;;9.50;33.40;;;;;;5014437;28;20176;-68
2023/10/26 05:41:15;;;;;;;4.90;1.47;;;9.50;34.50;;;;;;5015543;28;20179;-69
2023/10/26 05:43:41;;;;;;;3.03;1.57;;;9.60;34.20;;;;;;5015710;28;20414;-68
2023/10/26 05:46:06;;;;;;;4.37;2.37;;;9.60;34.60;;;;;;5015729;28;20176;-69
2023/10/26 05:48:33;;;;;;;4.80;2.47;;;9.70;34.60;;;;;;5015584;28;20660;-68
2023/10/26 05:50:59;;;;;;;6.87;3.23;;;9.70;35.10;;;;;;5030290;28;20211;-69
2023/10/26 05:53:25;;;;;;;8.83;4.90;;;9.80;35.90;;;;;;5014263;28;20787;-68
2023/10/26 05:55:58;;;;;;;6.67;4.00;;;9.70;36.30;;;;;;5030481;28;20572;-68
2023/10/26 05:58:24;;;;;;;5.40;2.67;;;9.80;36.40;;;;;;5032350;28;20414;-69
2023/10/26 06:00:50;;;;;;;5.07;3.17;;;9.90;36.00;;;;;;5018251;28;20414;-68
2023/10/26 06:03:15;;;;;;;4.17;3.00;;;9.80;36.70;;;;;;5034906;28;20506;-68
2023/10/26 06:05:41;;;;;;;7.87;3.57;;;9.90;36.00;;;;;;5019731;28;20278;-71
2023/10/26 06:08:06;;;;;;;7.63;4.00;;;10.00;35.20;;;;;;5020530;28;20230;-69
2023/10/26 06:10:32;;;;;;;7.30;4.20;;;10.00;34.40;;;;;;5019892;28;20207;-69
2023/10/26 06:12:57;;;;;;;7.80;3.60;;;10.00;34.90;;;;;;5034361;28;20187;-68
2023/10/26 06:15:23;;;;;;;6.57;4.30;;;10.00;34.40;;;;;;5019621;28;20219;-69
2023/10/26 06:17:49;;;;;;;3.73;2.80;;;10.10;34.30;;;;;;5019459;28;20199;-68
2023/10/26 06:20:16;;;;;;;6.80;3.03;;;10.20;34.10;;;;;;5019029;28;20180;-69
2023/10/26 06:22:42;;;;;;;4.10;2.10;;;10.20;33.40;;;;;;5015457;28;20460;-68
2023/10/26 06:25:08;;;;;;;3.20;2.27;;;10.30;32.60;;;;;;5014819;28;20435;-68
2023/10/26 06:27:33;;;;;;;6.33;2.30;;;10.30;31.20;;;;;;5014419;28;20631;-68
2023/10/26 06:29:59;;;;;;;3.30;1.90;;;10.40;31.30;;;;;;5017248;28;20462;-68
2023/10/26 06:32:24;;;;;;;4.83;1.80;;;10.40;31.30;;;;;;5014918;28;20259;-68
2023/10/26 06:34:50;;;;;;;4.03;1.60;;;10.50;31.40;;;;;;5014542;28;20262;-68
2023/10/26 06:37:16;;;;;;;2.97;1.83;;;10.50;31.10;;;;;;5015392;28;20222;-68
2023/10/26 06:39:42;;;;;;;4.47;2.47;;;10.60;30.00;;;;;;5015226;28;20502;-68
2023/10/26 06:42:07;;;;;;;6.00;2.30;;;10.60;30.40;;;;;;5015448;28;20423;-68
2023/10/26 06:44:33;;;;;;;4.37;2.20;;;10.60;30.40;;;;;;5015354;28;20203;-68
2023/10/26 06:46:58;;;;;;;7.27;2.27;;;10.70;30.90;;;;;;5014965;28;20190;-68
2023/10/26 06:49:24;;;;;;;3.27;1.60;;;10.80;30.00;;;;;;5014784;28;20204;-68
2023/10/26 06:51:50;;;;;;;2.77;1.63;;;10.80;30.50;;;;;;5015556;28;20259;-68
2023/10/26 06:54:16;;;;;;;4.17;2.47;;;10.90;29.60;;;;;;5014759;28;20717;-68
2023/10/26 06:56:42;;;;;;;3.00;1.80;;;11.00;29.60;;;;;;5014822;28;20203;-68
2023/10/26 06:59:08;;;;;;;3.00;2.03;;;11.10;29.00;;;;;;5014678;28;20195;-68
2023/10/26 07:01:34;;;;;;;3.07;1.90;;;11.20;27.50;;;;;;5013597;28;20428;-68
2023/10/26 07:06:24;;;;;;;3.10;1.87;;;11.30;27.60;;;;;;5052980;23;21073;-70
2023/10/26 07:08:50;;;;;;;2.93;1.97;;;11.40;27.70;;;;;;5032970;28;20556;-68
2023/10/26 07:11:16;;;;;;;6.60;2.03;;;11.50;27.40;;;;;;5033500;28;20554;-70
2023/10/26 07:13:42;;;;;;;3.53;1.63;;;11.70;26.20;;;;;;5034430;28;20207;-70
2023/10/26 07:16:08;;;;;;;2.37;1.60;;;11.70;24.10;;;;;;5032466;28;20196;-71
2023/10/26 07:18:34;;;;;;;2.27;1.57;;;11.70;23.80;;;;;;5014965;28;20487;-69
2023/10/26 07:21:07;;;;;;;2.20;1.40;;;11.80;23.80;;;;;;5030113;28;20683;-70
2023/10/26 07:23:33;;;;;;;5.33;1.53;;;11.90;23.90;;;;;;5031571;28;20430;-69
2023/10/26 07:25:59;;;;;;;2.43;1.53;;;11.90;22.70;;;;;;5016878;28;20443;-69
2023/10/26 07:28:25;;;;;;;4.77;2.30;;;12.00;22.60;;;;;;5032207;28;20441;-69
2023/10/26 07:30:53;;;;;;;4.40;2.20;;;12.10;21.60;;;;;;5015120;28;20902;-69
2023/10/26 07:33:19;;;;;;;4.87;2.40;;;12.10;20.10;;;;;;5016009;28;20173;-69
2023/10/26 07:35:56;;;;;;;2.17;1.07;;;12.20;20.00;;;;;;5014967;28;20437;-69
2023/10/26 07:38:25;;;;;;;2.10;1.30;;;12.10;20.00;;;;;;5016130;28;20178;-69
2023/10/26 07:40:53;;;;;;;2.40;0.90;;;12.30;20.20;;;;;;5016388;28;20418;-69
2023/10/26 07:43:18;;;;;;;2.57;1.37;;;12.30;19.60;;;;;;5018342;28;20415;-69
2023/10/26 07:45:46;;;;;;;5.13;2.77;;;12.50;18.50;;;;;;5017034;28;20804;-70
2023/10/26 07:48:12;;;;;;;2.90;1.70;;;12.60;17.70;;;;;;5017531;28;20547;-69
2023/10/26 07:50:38;;;;;;;2.87;2.30;;;12.60;17.40;;;;;;5032011;28;20461;-70
2023/10/26 07:53:05;;;;;;;2.97;2.37;;;12.70;17.30;;;;;;5013790;28;20179;-68
2023/10/26 07:55:31;;;;;;;3.30;2.10;;;12.70;17.70;;;;;;5031110;28;20840;-70
2023/10/26 07:57:57;;;;;;;3.07;1.70;;;12.80;17.50;;;;;;5015562;28;20423;-71
2023/10/26 08:00:22;;;;;;;1.87;1.20;;;12.80;17.60;;;;;;5017086;28;20414;-71
2023/10/26 08:02:49;;;;;;;5.13;3.30;;;12.70;18.80;;;;;;5017848;28;20230;-70
2023/10/26 08:05:15;;;;;;;4.77;2.30;;;12.70;20.20;;;;;;5017424;28;20874;-69
2023/10/26 08:07:41;;;;;;;3.67;2.53;;;12.70;21.00;;;;;;5033741;28;20427;-71
2023/10/26 08:10:11;;;;;;;5.00;2.80;;;12.80;20.90;;;;;;5032611;28;20207;-71
2023/10/26 08:12:37;;;;;;;5.97;3.00;;;12.90;21.50;;;;;;5018243;28;20419;-71
2023/10/26 08:15:04;;;;;;;5.67;3.30;;;13.00;21.80;;;;;;5018142;28;20434;-69
2023/10/26 08:17:34;;;;;;;1.90;1.20;;;12.90;22.00;;;;;;5032146;28;20420;-68
2023/10/26 08:20:01;;;;;;;2.00;1.03;;;12.90;21.90;;;;;;5014588;28;20417;-69
2023/10/26 08:22:30;;;;;;;1.83;1.00;;;12.80;22.70;;;;;;5014436;28;20457;-70
2023/10/26 08:24:56;;;;;;;2.30;1.30;;;12.90;22.80;;;;;;5031682;28;20839;-69
2023/10/26 08:27:23;;;;;;;1.93;0.80;;;13.10;21.80;;;;;;5032313;28;20437;-68
2023/10/26 08:29:51;;;;;;;2.00;0.90;;;13.20;20.20;;;;;;5031351;28;20196;-71
2023/10/26 08:32:16;;;;;;;2.10;1.00;;;13.30;20.60;;;;;;5018406;28;20415;-70
2023/10/26 08:34:44;;;;;;;1.70;0.80;;;13.40;20.70;;;;;;5033973;28;20499;-68
2023/10/26 08:37:12;;;;;;;2.07;1.10;;;13.40;20.30;;;;;;5017217;28;20313;-68
2023/10/26 08:39:38;;;;;;;2.40;1.13;;;13.40;22.20;;;;;;5018065;28;20919;-69
2023/10/26 08:42:04;;;;;;;2.13;1.20;;;13.40;22.60;;;;;;5016984;28;20423;-68
2023/10/26 08:44:30;;;;;;;4.50;2.70;;;13.60;21.30;;;;;;5033803;28;20439;-71
2023/10/26 08:47:01;;;;;;;4.70;2.60;;;13.70;20.20;;;;;;5017499;28;20226;-71
2023/10/26 08:49:28;;;;;;;2.73;1.33;;;13.70;18.50;;;;;;5031184;28;20207;-70
2023/10/26 08:51:54;;;;;;;2.97;1.27;;;13.50;17.50;;;;;;5029488;28;20438;-71
2023/10/26 08:54:20;;;;;;;1.80;0.80;;;13.50;18.60;;;;;;5014112;28;20434;-68
2023/10/26 08:56:46;;;;;;;3.10;0.83;;;13.40;18.50;;;;;;5028071;28;20927;-70
2023/10/26 08:59:12;;;;;;;2.87;1.20;;;13.40;19.60;;;;;;5028414;28;20590;-70
2023/10/26 09:01:38;;;;;;;2.00;0.90;;;13.40;19.20;;;;;;5009284;28;20704;-70
2023/10/26 09:04:11;;;;;;;1.70;0.80;;;13.40;19.70;;;;;;4993948;28;20428;-70
2023/10/26 09:06:47;;;;;;;1.77;0.70;;;13.40;20.70;;;;;;4995297;28;20187;-70
2023/10/26 09:09:14;;;;;;;2.00;1.20;;;13.40;20.70;;;;;;4994343;28;20458;-70
2023/10/26 09:11:40;;;;;;;2.37;0.90;;;13.40;20.30;;;;;;4993931;28;20424;-70
2023/10/26 09:14:14;;;;;;;2.90;1.07;;;13.60;20.10;;;;;;4995763;28;20426;-69
2023/10/26 09:16:41;;;;;;;5.70;1.37;;;13.50;20.70;;;;;;4994765;28;21053;-70
2023/10/26 09:19:07;;;;;;;1.70;0.80;;;13.50;20.70;;;;;;4993930;28;20420;-68
2023/10/26 09:21:56;;;;;;;1.60;0.60;;;13.40;20.70;;;;;;4995690;28;20508;-70
2023/10/26 09:24:26;;;;;;;2.53;0.90;;;13.30;22.80;;;;;;4993723;28;20635;-70
2023/10/26 09:26:53;;;;;;;4.27;1.07;;;13.20;23.40;;;;;;4992601;28;20426;-69
2023/10/26 09:29:20;;;;;;;2.20;1.10;;;13.10;24.10;;;;;;4992138;28;20462;-70
2023/10/26 09:31:55;;;;;;;2.00;1.13;;;13.10;24.80;;;;;;4992442;28;20442;-70
2023/10/26 09:34:24;;;;;;;2.60;1.37;;;13.20;24.80;;;;;;4993256;28;20431;-71
2023/10/26 09:37:04;;;;;;;2.80;1.27;;;13.20;25.00;;;;;;4994978;28;20785;-71
2023/10/26 09:39:34;;;;;;;5.20;2.70;;;13.30;25.20;;;;;;4993605;28;20420;-70
2023/10/26 09:42:01;;;;;;;5.33;2.80;;;13.30;24.60;;;;;;4996010;28;20470;-68
2023/10/26 09:44:30;;;;;;;4.93;2.80;;;13.40;25.20;;;;;;4995115;28;20477;-70
2023/10/26 09:46:57;;;;;;;7.27;4.33;;;13.60;24.50;;;;;;4995128;28;20485;-70
2023/10/26 09:49:23;;;;;;;4.70;2.90;;;13.60;23.60;;;;;;4996012;28;20525;-70
2023/10/26 09:51:49;;;;;;;2.50;1.13;;;13.60;25.10;;;;;;4995620;28;20424;-69
2023/10/26 09:54:21;;;;;;;2.57;1.77;;;13.80;23.40;;;;;;4997034;28;20423;-69
2023/10/26 09:56:58;;;;;;;2.90;1.80;;;14.00;21.30;;;;;;4995629;28;20447;-70
2023/10/26 09:59:24;;;;;;;3.67;2.03;;;14.30;22.00;;;;;;4998586;28;20774;-69
2023/10/26 10:01:50;;;;;;;2.70;2.03;;;14.50;20.20;;;;;;4999737;28;20423;-70
2023/10/26 10:04:18;;;;;;;2.60;1.97;;;14.80;17.40;;;;;;4998736;28;20419;-69
2023/10/26 10:06:50;;;;;;;3.20;1.90;;;15.00;16.50;;;;;;5000043;28;20728;-70
2023/10/26 10:09:19;;;;;;;4.27;2.53;;;15.20;15.00;;;;;;5000716;28;20458;-69
2023/10/26 10:11:45;;;;;;;2.60;1.57;;;15.40;12.50;;;;;;4998626;28;20423;-70
2023/10/26 10:14:55;;;;;;;2.30;1.30;;;15.60;12.80;;;;;;4998116;28;20447;-70
2023/10/26 10:17:22;;;;;;;1.80;0.90;;;15.80;12.70;;;;;;4999092;28;20410;-69
2023/10/26 10:20:14;;;;;;;2.40;1.40;;;16.30;10.90;;;;;;4999067;28;20411;-70
2023/10/26 10:22:46;;;;;;;3.37;1.73;;;16.60;8.60;;;;;;4996436;28;20434;-69
2023/10/26 10:25:13;;;;;;;2.00;1.13;;;16.90;8.20;;;;;;4996478;28;20439;-71
2023/10/26 10:27:39;;;;;;;2.43;1.20;;;17.10;5.60;;;;;;4997219;28;20792;-71
2023/10/26 10:30:09;;;;;;;2.93;1.13;;;17.40;3.90;;;;;;4996490;28;20929;-70
2023/10/26 10:32:47;;;;;;;2.50;1.37;;;17.60;4.30;;;;;;4996903;28;20900;-70
2023/10/26 10:35:27;;;;;;;2.10;0.87;;;17.70;1.80;;;;;;4996785;28;20463;-70
2023/10/26 10:38:15;;;;;;;2.27;1.17;;;17.80;1.50;;;;;;4996906;28;20427;-70
2023/10/26 10:41:07;;;;;;;4.33;1.57;;;17.70;1.40;;;;;;4996447;28;20407;-70
2023/10/26 10:43:43;;;;;;;3.57;1.90;;;17.80;1.40;;;;;;4998090;28;20408;-70
2023/10/26 10:46:26;;;;;;;5.30;2.43;;;17.90;2.40;;;;;;5011982;28;20439;-70
2023/10/26 10:49:08;;;;;;;7.60;1.97;;;18.00;3.10;;;;;;4996609;28;20444;-70
2023/10/26 10:51:42;;;;;;;4.50;1.67;;;18.30;2.10;;;;;;4996493;28;20415;-70
2023/10/26 10:54:10;;;;;;;5.30;1.80;;;18.00;1.60;;;;;;4996170;28;20760;-70
2023/10/26 10:56:44;;;;;;;4.20;1.70;;;17.60;2.50;;;;;;4997117;28;20416;-70
2023/10/26 10:59:20;;;;;;;8.20;1.83;;;17.60;1.80;;;;;;4996798;28;21081;-70
2023/10/26 11:01:49;;;;;;;2.83;1.73;;;17.70;3.80;;;;;;5011570;28;20415;-70
2023/10/26 11:04:20;;;;;;;4.20;1.80;;;17.90;1.50;;;;;;4996638;28;20466;-70
2023/10/26 11:06:47;;;;;;;3.23;1.90;;;18.10;1.00;;;;;;4994716;28;20419;-69
2023/10/26 11:09:27;;;;;;;3.73;2.03;;;18.20;1.00;;;;;;4993782;28;20545;-71
2023/10/26 11:11:54;;;;;;;4.77;1.93;;;18.10;1.00;;;;;;4996432;28;20929;-70
2023/10/26 11:14:21;;;;;;;2.53;1.50;;;18.00;1.00;;;;;;4994313;28;21134;-70
2023/10/26 11:16:50;;;;;;;3.20;2.00;;;18.10;1.00;;;;;;4994585;28;20471;-70
2023/10/26 11:19:18;;;;;;;3.80;2.20;;;18.20;1.00;;;;;;4996602;28;20653;-71
2023/10/26 11:21:44;;;;;;;4.13;2.93;;;18.20;1.00;;;;;;4995834;28;20719;-70
2023/10/26 11:24:10;;;;;;;4.93;2.53;;;17.90;1.00;;;;;;4996221;28;20811;-71
2023/10/26 11:26:36;;;;;;;2.87;1.90;;;17.90;1.50;;;;;;4996267;28;20244;-70
2023/10/26 11:29:04;;;;;;;4.00;2.30;;;17.90;1.00;;;;;;4994301;28;20499;-71
2023/10/26 11:31:35;;;;;;;5.03;2.17;;;17.80;1.00;;;;;;4994631;28;20630;-68
2023/10/26 11:34:08;;;;;;;3.90;2.47;;;17.70;1.40;;;;;;4994697;28;20440;-68
2023/10/26 11:36:36;;;;;;;4.73;2.00;;;17.70;4.00;;;;;;4994649;28;20443;-70
2023/10/26 11:39:02;;;;;;;3.60;1.90;;;17.90;3.70;;;;;;4995441;28;20503;-69
2023/10/26 11:41:28;;;;;;;3.10;2.00;;;17.90;1.90;;;;;;4994812;28;20416;-70
2023/10/26 11:43:54;;;;;;;3.63;2.50;;;18.10;4.00;;;;;;4995721;28;20509;-71
2023/10/26 11:46:33;;;;;;;4.00;1.57;;;18.50;1.20;;;;;;4994413;28;20197;-71
2023/10/26 11:49:00;;;;;;;3.03;1.50;;;18.50;1.00;;;;;;4995314;28;20453;-70
2023/10/26 11:51:27;;;;;;;2.63;1.50;;;18.50;1.00;;;;;;4996529;28;20931;-70
2023/10/26 11:53:54;;;;;;;2.63;2.00;;;18.50;1.00;;;;;;4996731;28;20408;-69
2023/10/26 11:56:19;;;;;;;3.10;1.27;;;18.90;1.00;;;;;;4995415;28;20814;-69
2023/10/26 11:58:45;;;;;;;3.80;2.30;;;19.00;1.00;;;;;;4997261;28;20414;-69
2023/10/26 12:01:11;;;;;;;6.07;1.80;;;18.80;1.00;;;;;;4996043;28;20177;-70
2023/10/26 12:03:42;;;;;;;5.43;1.70;;;18.80;1.00;;;;;;4997572;28;20467;-70
2023/10/26 12:06:10;;;;;;;5.30;2.20;;;18.80;1.00;;;;;;4996928;28;20303;-70
2023/10/26 12:08:35;;;;;;;4.50;1.83;;;18.80;1.00;;;;;;4995958;28;20838;-70
2023/10/26 12:11:01;;;;;;;5.00;2.00;;;18.90;1.00;;;;;;4996354;28;20459;-70
2023/10/26 12:13:26;;;;;;;3.50;1.33;;;18.70;1.00;;;;;;4997441;28;20184;-70
2023/10/26 12:15:52;;;;;;;3.50;1.50;;;18.40;1.00;;;;;;4996876;28;20192;-70
2023/10/26 12:18:18;;;;;;;7.03;2.40;;;18.50;1.00;;;;;;4995574;28;20264;-70
2023/10/26 12:20:44;;;;;;;5.73;1.77;;;18.70;1.00;;;;;;4995958;28;20181;-70
2023/10/26 12:23:09;;;;;;;5.53;2.23;;;18.60;1.00;;;;;;4994318;28;21076;-70
2023/10/26 12:25:36;;;;;;;5.70;1.63;;;18.80;1.00;;;;;;4995132;28;20583;-69
2023/10/26 12:28:01;;;;;;;3.87;2.20;;;18.80;1.00;;;;;;4994219;28;20184;-69
2023/10/26 12:30:27;;;;;;;6.70;2.17;;;18.70;1.00;;;;;;4995572;28;20468;-70
2023/10/26 12:32:52;;;;;;;3.43;1.83;;;18.70;1.00;;;;;;4995653;28;20180;-69
2023/10/26 12:35:18;;;;;;;6.67;2.30;;;18.20;1.00;;;;;;4995885;28;20192;-70
2023/10/26 12:37:43;;;;;;;8.60;2.07;;;18.10;1.00;;;;;;4996013;28;20177;-69
2023/10/26 12:40:09;;;;;;;5.10;1.60;;;17.90;1.00;;;;;;4995842;28;20184;-70
2023/10/26 12:42:35;;;;;;;5.60;2.60;;;17.90;1.00;;;;;;4996282;28;20176;-70
2023/10/26 12:45:01;;;;;;;5.27;2.03;;;17.90;1.00;;;;;;4994400;28;20200;-69
2023/10/26 12:47:26;;;;;;;3.87;2.20;;;17.90;1.00;;;;;;4995547;28;20422;-69
2023/10/26 12:49:52;;;;;;;6.30;2.50;;;17.90;1.00;;;;;;4995069;28;20576;-70
2023/10/26 12:52:18;;;;;;;6.00;2.10;;;17.80;1.00;;;;;;4994339;28;20299;-70
2023/10/26 12:54:44;;;;;;;8.67;3.40;;;17.90;1.00;;;;;;4995541;28;20474;-70